Time;durP1;ratioP1;P1;durP2;ratioP2;P2;SDS_P1;SDS_P2;PMS_P1;PMS_P2;Temp;Humidity;BMP_temperature;BMP_pressure;BME280_temperature;BME280_humidity;BME280_pressure;Samples;Min_cycle;Max_cycle;Signal;HPM_P1;HPM_P2
2021/08/23 00:01:43;;;;;;;1.10;1.00;;;24.20;58.60;;;;;;6242230;28;20021;-67
2021/08/23 00:04:44;;;;;;;1.80;1.40;;;24.20;58.70;;;;;;6241640;28;20095;-67
2021/08/23 00:07:45;;;;;;;1.33;1.00;;;24.20;58.60;;;;;;6242342;28;20021;-67
2021/08/23 00:10:45;;;;;;;1.35;1.17;;;24.20;58.60;;;;;;6242306;28;20438;-67
2021/08/23 00:13:46;;;;;;;1.50;1.10;;;24.20;58.60;;;;;;6240737;28;20084;-67
2021/08/23 00:16:46;;;;;;;1.10;1.00;;;24.20;58.70;;;;;;6241096;28;20034;-69
2021/08/23 00:19:47;;;;;;;1.25;0.95;;;24.20;58.70;;;;;;6241527;28;20152;-67
2021/08/23 00:22:48;;;;;;;1.65;1.10;;;24.20;58.70;;;;;;6242136;28;20060;-67
2021/08/23 00:25:49;;;;;;;1.38;1.25;;;24.20;58.60;;;;;;6232571;28;20026;-67
2021/08/23 00:28:50;;;;;;;1.48;1.17;;;24.20;58.60;;;;;;6220547;28;20056;-67
2021/08/23 00:31:51;;;;;;;1.65;1.17;;;24.20;58.70;;;;;;6241752;28;20074;-67
2021/08/23 00:34:52;;;;;;;1.30;1.10;;;24.30;58.70;;;;;;6240260;28;20082;-67
2021/08/23 00:37:55;;;;;;;0.90;0.90;;;24.20;58.60;;;;;;6241794;28;20018;-67
2021/08/23 00:40:56;;;;;;;1.10;0.95;;;24.20;58.60;;;;;;6241489;28;20036;-67
2021/08/23 00:43:56;;;;;;;1.25;1.02;;;24.20;58.60;;;;;;6242339;28;20025;-67
2021/08/23 00:47:00;;;;;;;1.08;0.95;;;24.20;58.60;;;;;;6239783;28;20027;-67
2021/08/23 00:50:01;;;;;;;0.90;0.90;;;24.20;58.60;;;;;;6241150;28;20025;-67
2021/08/23 00:53:03;;;;;;;1.13;1.02;;;24.20;58.60;;;;;;6241170;28;20091;-67
2021/08/23 00:56:03;;;;;;;1.60;1.20;;;24.20;58.60;;;;;;6240924;28;20049;-67
2021/08/23 00:59:08;;;;;;;1.20;1.10;;;24.20;58.60;;;;;;6241240;28;20033;-67
2021/08/23 01:02:15;;;;;;;1.15;1.00;;;24.20;58.60;;;;;;6240983;28;20030;-67
2021/08/23 01:05:29;;;;;;;1.10;1.00;;;24.20;58.60;;;;;;6241219;28;20075;-67
2021/08/23 01:08:40;;;;;;;1.10;0.93;;;24.20;58.60;;;;;;6241158;28;20390;-67
2021/08/23 01:11:55;;;;;;;1.45;0.98;;;24.20;58.60;;;;;;6240779;28;20083;-67
2021/08/23 01:14:59;;;;;;;0.80;0.80;;;24.20;58.60;;;;;;6229525;28;20021;-69
2021/08/23 01:17:59;;;;;;;1.10;1.00;;;24.20;58.60;;;;;;6241042;28;20091;-67
2021/08/23 01:21:03;;;;;;;1.52;1.10;;;24.20;58.60;;;;;;6231486;28;20431;-67
2021/08/23 01:24:08;;;;;;;1.30;0.90;;;24.20;58.60;;;;;;6216199;28;20490;-67
2021/08/23 01:27:11;;;;;;;1.05;0.90;;;24.20;58.60;;;;;;6236043;28;20032;-67
2021/08/23 01:30:14;;;;;;;1.33;1.00;;;24.20;58.60;;;;;;6240892;28;20485;-67
2021/08/23 01:33:15;;;;;;;1.15;1.05;;;24.20;58.60;;;;;;6241283;28;20052;-67
2021/08/23 01:36:15;;;;;;;0.95;0.82;;;24.20;58.60;;;;;;6240388;28;20520;-67
2021/08/23 01:39:20;;;;;;;1.00;0.90;;;24.20;58.60;;;;;;6240765;28;20033;-67
2021/08/23 01:42:21;;;;;;;1.13;1.02;;;24.20;58.70;;;;;;6240864;28;20073;-67
2021/08/23 01:45:21;;;;;;;1.20;1.00;;;24.20;58.70;;;;;;6240650;28;20033;-67
2021/08/23 01:48:22;;;;;;;0.95;0.88;;;24.20;58.60;;;;;;6240654;28;20033;-67
2021/08/23 01:51:23;;;;;;;0.88;0.82;;;24.20;58.60;;;;;;6239099;28;20025;-67
2021/08/23 01:54:24;;;;;;;0.98;0.95;;;24.20;58.60;;;;;;6240423;28;20127;-67
2021/08/23 01:57:25;;;;;;;1.33;1.00;;;24.20;58.70;;;;;;6240261;28;20076;-67
2021/08/23 02:00:26;;;;;;;0.90;0.90;;;24.20;58.60;;;;;;6242782;28;20035;-69
2021/08/23 02:03:26;;;;;;;1.20;1.10;;;24.20;58.70;;;;;;6243928;28;20410;-69
2021/08/23 02:06:27;;;;;;;1.20;1.10;;;24.20;58.70;;;;;;6245168;28;20068;-67
2021/08/23 02:09:28;;;;;;;1.08;0.98;;;24.20;58.60;;;;;;6245477;28;20026;-67
2021/08/23 02:12:28;;;;;;;0.80;0.80;;;24.20;58.60;;;;;;6244750;28;20111;-67
2021/08/23 02:15:29;;;;;;;1.13;1.00;;;24.20;58.70;;;;;;6225672;28;20044;-67
2021/08/23 02:18:29;;;;;;;1.20;1.05;;;24.20;58.60;;;;;;6243217;28;20028;-67
2021/08/23 02:21:30;;;;;;;1.13;0.90;;;24.20;58.70;;;;;;6244516;28;20026;-67
2021/08/23 02:24:33;;;;;;;0.80;0.80;;;24.20;58.70;;;;;;6245218;28;20033;-67
2021/08/23 02:27:33;;;;;;;1.95;0.98;;;24.20;58.70;;;;;;6244946;28;20021;-67
2021/08/23 02:30:34;;;;;;;0.80;0.80;;;24.20;58.60;;;;;;6243169;28;20036;-67
2021/08/23 02:33:35;;;;;;;0.95;0.82;;;24.20;58.60;;;;;;6244258;28;20430;-67
2021/08/23 02:36:35;;;;;;;0.95;0.80;;;24.20;58.70;;;;;;6244101;28;20034;-67
2021/08/23 02:39:36;;;;;;;1.02;0.93;;;24.20;58.60;;;;;;6243915;28;20470;-67
2021/08/23 02:42:37;;;;;;;1.45;0.93;;;24.20;58.60;;;;;;6244428;28;20025;-67
2021/08/23 02:45:37;;;;;;;0.73;0.73;;;24.20;58.70;;;;;;6244473;28;20343;-67
2021/08/23 02:48:38;;;;;;;0.98;0.77;;;24.20;58.70;;;;;;6244024;28;20037;-67
2021/08/23 02:51:38;;;;;;;1.10;0.88;;;24.20;58.70;;;;;;6243600;28;20055;-67
2021/08/23 02:54:39;;;;;;;0.75;0.70;;;24.20;58.70;;;;;;6244249;28;20022;-67
2021/08/23 02:57:39;;;;;;;0.85;0.80;;;24.20;58.70;;;;;;6242628;28;20034;-67
2021/08/23 03:00:40;;;;;;;1.00;0.90;;;24.20;58.70;;;;;;6242550;28;20112;-67
2021/08/23 03:03:41;;;;;;;0.90;0.82;;;24.20;58.70;;;;;;6237647;28;20021;-67
2021/08/23 03:06:41;;;;;;;0.88;0.70;;;24.20;58.70;;;;;;6244097;28;20021;-67
2021/08/23 03:09:42;;;;;;;1.02;0.73;;;24.20;58.60;;;;;;6243661;28;20064;-67
2021/08/23 03:12:42;;;;;;;0.80;0.80;;;24.20;58.60;;;;;;6242586;28;20506;-67
2021/08/23 03:15:43;;;;;;;0.82;0.70;;;24.20;58.70;;;;;;6222164;28;20026;-67
2021/08/23 03:18:43;;;;;;;0.93;0.70;;;24.20;58.70;;;;;;6233001;28;20026;-67
2021/08/23 03:21:44;;;;;;;1.23;0.80;;;24.20;58.70;;;;;;6243266;28;20100;-69
2021/08/23 03:24:44;;;;;;;1.00;0.82;;;24.20;58.70;;;;;;6243261;28;20101;-69
2021/08/23 03:27:45;;;;;;;0.70;0.65;;;24.20;58.70;;;;;;6243541;28;20038;-67
2021/08/23 03:30:45;;;;;;;1.23;0.88;;;24.20;58.70;;;;;;6243353;28;20482;-67
2021/08/23 03:33:46;;;;;;;0.75;0.60;;;24.20;58.60;;;;;;6243062;28;20033;-69
2021/08/23 03:36:47;;;;;;;0.90;0.70;;;24.20;58.70;;;;;;6243788;28;20061;-69
2021/08/23 03:39:47;;;;;;;0.95;0.70;;;24.20;58.60;;;;;;6242441;28;20021;-69
2021/08/23 03:42:48;;;;;;;0.80;0.70;;;24.20;58.60;;;;;;6242661;28;20033;-69
2021/08/23 03:45:48;;;;;;;0.77;0.73;;;24.20;58.70;;;;;;6243098;28;20027;-69
2021/08/23 03:48:49;;;;;;;0.77;0.63;;;24.20;59.40;;;;;;6242360;28;20017;-69
2021/08/23 03:51:49;;;;;;;0.80;0.70;;;24.20;58.60;;;;;;6242254;28;20029;-69
2021/08/23 03:54:50;;;;;;;0.85;0.70;;;24.20;58.70;;;;;;6242549;28;20021;-69
2021/08/23 03:57:50;;;;;;;0.82;0.73;;;24.20;58.60;;;;;;6243140;28;20368;-69
2021/08/23 04:00:51;;;;;;;0.82;0.70;;;24.20;58.60;;;;;;6242225;28;20445;-67
2021/08/23 04:03:52;;;;;;;0.75;0.75;;;24.20;58.60;;;;;;6242922;28;20018;-67
2021/08/23 04:06:53;;;;;;;0.70;0.60;;;24.20;58.60;;;;;;6242570;28;20578;-67
2021/08/23 04:09:53;;;;;;;0.80;0.80;;;24.20;58.70;;;;;;6241729;28;20040;-67
2021/08/23 04:12:54;;;;;;;0.95;0.80;;;24.20;58.70;;;;;;6242336;28;20246;-67
2021/08/23 04:15:56;;;;;;;0.50;0.50;;;24.20;58.60;;;;;;6240258;28;20030;-67
2021/08/23 04:18:57;;;;;;;1.05;0.80;;;24.20;58.70;;;;;;6242455;28;20601;-67
2021/08/23 04:21:58;;;;;;;0.80;0.70;;;24.20;58.60;;;;;;6241714;28;20029;-69
2021/08/23 04:24:59;;;;;;;0.60;0.60;;;24.20;58.70;;;;;;6242108;28;20116;-69
2021/08/23 04:27:59;;;;;;;0.70;0.70;;;24.20;58.70;;;;;;6240636;28;20045;-69
2021/08/23 04:31:00;;;;;;;0.57;0.57;;;24.20;58.60;;;;;;6242394;28;20033;-69
2021/08/23 04:34:00;;;;;;;0.60;0.60;;;24.20;58.60;;;;;;6240589;28;20422;-69
2021/08/23 04:37:03;;;;;;;0.63;0.63;;;24.20;58.60;;;;;;6242002;28;20032;-69
2021/08/23 04:40:05;;;;;;;0.65;0.60;;;24.20;58.70;;;;;;6241597;28;20017;-69
2021/08/23 04:43:06;;;;;;;1.33;0.88;;;24.20;58.70;;;;;;6241852;28;20032;-69
2021/08/23 04:46:06;;;;;;;0.60;0.50;;;24.20;58.60;;;;;;6241768;28;20297;-69
2021/08/23 04:49:07;;;;;;;0.77;0.70;;;24.20;58.60;;;;;;6241295;28;20075;-69
2021/08/23 04:52:07;;;;;;;0.80;0.80;;;24.20;58.60;;;;;;6239769;28;20425;-69
2021/08/23 04:55:09;;;;;;;0.50;0.50;;;24.20;58.70;;;;;;6240156;28;20025;-69
2021/08/23 04:58:09;;;;;;;0.80;0.60;;;24.20;58.60;;;;;;6241394;28;20344;-69
2021/08/23 05:01:11;;;;;;;0.70;0.60;;;24.20;58.70;;;;;;6237327;28;20046;-69
2021/08/23 05:04:12;;;;;;;0.90;0.70;;;24.20;58.70;;;;;;6226513;28;20130;-69
2021/08/23 05:07:14;;;;;;;0.60;0.60;;;24.20;58.70;;;;;;6241421;28;20025;-68
2021/08/23 05:10:14;;;;;;;0.52;0.50;;;24.20;58.60;;;;;;6241243;28;20021;-70
2021/08/23 05:13:15;;;;;;;1.05;0.77;;;24.20;58.70;;;;;;6241661;28;20091;-70
2021/08/23 05:16:15;;;;;;;0.70;0.70;;;24.20;58.70;;;;;;6240808;28;20033;-66
2021/08/23 05:19:16;;;;;;;1.00;0.60;;;24.20;58.60;;;;;;6242524;28;20033;-67
2021/08/23 05:22:17;;;;;;;0.60;0.60;;;24.20;58.70;;;;;;6241473;28;20032;-66
2021/08/23 05:25:18;;;;;;;0.60;0.60;;;24.20;59.00;;;;;;6236316;28;20483;-67
2021/08/23 05:28:18;;;;;;;0.50;0.45;;;24.20;58.60;;;;;;6241660;28;20152;-70
2021/08/23 05:31:21;;;;;;;0.50;0.50;;;24.20;58.60;;;;;;6239800;28;20026;-71
2021/08/23 05:34:23;;;;;;;2.00;0.80;;;24.20;58.60;;;;;;6239861;28;20053;-72
2021/08/23 05:37:24;;;;;;;8.00;1.20;;;24.20;58.40;;;;;;6240356;28;20029;-71
2021/08/23 05:40:26;;;;;;;3.55;1.02;;;24.20;57.50;;;;;;6239224;28;20409;-71
2021/08/23 05:43:27;;;;;;;4.28;1.23;;;24.20;57.40;;;;;;6239004;28;20486;-71
2021/08/23 05:46:27;;;;;;;3.78;1.30;;;24.20;57.30;;;;;;6239234;28;20036;-71
2021/08/23 05:49:28;;;;;;;3.47;1.33;;;24.20;56.80;;;;;;6239247;28;20048;-69
2021/08/23 05:52:28;;;;;;;3.63;1.70;;;24.20;56.50;;;;;;6239239;28;20037;-69
2021/08/23 05:55:30;;;;;;;2.45;1.10;;;24.20;56.40;;;;;;6236944;28;20021;-66
2021/08/23 05:58:30;;;;;;;4.53;1.33;;;24.20;57.40;;;;;;6238351;28;20498;-66
2021/08/23 06:01:31;;;;;;;5.82;1.40;;;24.20;57.00;;;;;;6236495;28;20037;-66
2021/08/23 06:04:32;;;;;;;3.33;1.45;;;24.30;57.30;;;;;;6233592;28;20029;-66
2021/08/23 06:07:34;;;;;;;2.25;1.17;;;24.30;57.50;;;;;;6233052;28;20113;-66
2021/08/23 06:10:34;;;;;;;3.03;1.38;;;24.30;57.50;;;;;;6241272;28;20017;-68
2021/08/23 06:13:35;;;;;;;1.85;0.80;;;24.30;57.60;;;;;;6232807;28;20037;-69
2021/08/23 06:16:36;;;;;;;4.35;0.95;;;24.40;56.50;;;;;;6242805;28;20037;-68
2021/08/23 06:19:37;;;;;;;1.33;0.80;;;24.40;56.00;;;;;;6243164;28;20025;-68
2021/08/23 06:22:38;;;;;;;1.67;1.10;;;24.50;55.40;;;;;;6243612;28;20083;-68
2021/08/23 06:25:38;;;;;;;3.78;0.90;;;24.50;54.80;;;;;;6243293;28;20060;-68
2021/08/23 06:28:39;;;;;;;2.75;0.80;;;24.50;54.20;;;;;;6242976;28;20482;-68
2021/08/23 06:31:41;;;;;;;3.78;0.93;;;24.60;54.00;;;;;;6243223;28;20506;-68
2021/08/23 06:34:42;;;;;;;1.27;0.80;;;24.60;53.90;;;;;;6218656;28;20077;-69
2021/08/23 06:37:43;;;;;;;1.77;0.85;;;24.70;53.80;;;;;;6232392;28;20110;-68
2021/08/23 06:40:43;;;;;;;1.77;0.93;;;24.70;53.70;;;;;;6243683;28;20025;-68
2021/08/23 06:43:45;;;;;;;1.27;0.75;;;24.70;53.40;;;;;;6242770;28;20018;-68
2021/08/23 06:46:46;;;;;;;1.10;0.82;;;24.80;53.40;;;;;;6246211;28;20025;-68
2021/08/23 06:49:47;;;;;;;0.85;0.70;;;24.80;53.20;;;;;;6247058;28;20057;-69
2021/08/23 06:52:47;;;;;;;0.93;0.80;;;24.80;53.10;;;;;;6248303;28;20075;-68
2021/08/23 06:55:48;;;;;;;1.25;0.80;;;24.80;53.00;;;;;;6247614;28;20099;-68
2021/08/23 06:58:48;;;;;;;0.90;0.70;;;24.90;53.00;;;;;;6247689;28;20036;-68
2021/08/23 07:01:49;;;;;;;1.20;0.68;;;24.90;52.90;;;;;;6246926;28;20080;-66
2021/08/23 07:04:50;;;;;;;0.60;0.60;;;24.90;52.80;;;;;;6247496;28;20479;-68
2021/08/23 07:07:50;;;;;;;1.77;0.90;;;24.90;52.70;;;;;;6246947;28;20117;-66
2021/08/23 07:10:51;;;;;;;0.93;0.60;;;24.90;52.60;;;;;;6247190;28;20056;-66
2021/08/23 07:13:51;;;;;;;1.10;0.85;;;24.90;52.50;;;;;;6245245;28;20394;-68
2021/08/23 07:16:52;;;;;;;1.00;0.75;;;24.90;52.50;;;;;;6246713;28;20490;-68
2021/08/23 07:19:52;;;;;;;0.98;0.82;;;25.00;52.50;;;;;;6246532;28;20075;-69
2021/08/23 07:22:53;;;;;;;1.23;0.70;;;25.00;52.30;;;;;;6246281;28;20117;-69
2021/08/23 07:25:55;;;;;;;1.70;0.93;;;25.00;52.30;;;;;;6246482;28;20548;-69
2021/08/23 07:28:56;;;;;;;0.90;0.75;;;25.00;52.20;;;;;;6247350;28;20104;-69
2021/08/23 07:31:57;;;;;;;0.70;0.65;;;25.00;52.20;;;;;;6238083;28;20076;-70
2021/08/23 07:34:58;;;;;;;0.93;0.63;;;25.00;52.10;;;;;;6241578;28;20502;-70
2021/08/23 07:37:59;;;;;;;1.10;0.70;;;25.00;52.00;;;;;;6244940;28;20057;-69
2021/08/23 07:41:03;;;;;;;1.40;0.90;;;25.00;52.00;;;;;;6247030;28;20417;-70
2021/08/23 07:44:03;;;;;;;0.90;0.60;;;25.00;52.20;;;;;;6247005;28;20344;-69
2021/08/23 07:47:05;;;;;;;1.30;0.77;;;25.00;51.90;;;;;;6245996;28;20498;-68
2021/08/23 07:50:07;;;;;;;1.40;0.63;;;25.00;51.80;;;;;;6246107;28;20372;-67
2021/08/23 07:53:07;;;;;;;1.83;0.90;;;25.00;51.70;;;;;;6246454;28;20037;-67
2021/08/23 07:56:08;;;;;;;1.00;0.63;;;25.00;51.70;;;;;;6244677;28;20046;-67
2021/08/23 07:59:08;;;;;;;1.83;0.90;;;25.00;51.60;;;;;;6245125;28;20032;-69
2021/08/23 08:02:09;;;;;;;1.35;0.80;;;25.00;51.50;;;;;;6245955;28;20024;-69
2021/08/23 08:05:12;;;;;;;1.30;0.73;;;25.10;52.30;;;;;;6245549;28;20030;-70
2021/08/23 08:08:12;;;;;;;0.70;0.60;;;25.10;51.50;;;;;;6245917;28;20024;-71
2021/08/23 08:11:13;;;;;;;0.77;0.55;;;25.10;51.50;;;;;;6245659;28;20421;-69
2021/08/23 08:14:13;;;;;;;0.68;0.55;;;25.10;51.40;;;;;;6244218;28;20105;-68
2021/08/23 08:17:14;;;;;;;1.17;0.65;;;25.10;51.40;;;;;;6244321;28;20033;-69
2021/08/23 08:20:15;;;;;;;1.15;0.70;;;25.10;51.30;;;;;;6244963;28;20033;-69
2021/08/23 08:23:16;;;;;;;1.48;0.65;;;25.10;51.20;;;;;;6244154;28;20026;-70
2021/08/23 08:26:17;;;;;;;1.08;0.60;;;25.10;51.20;;;;;;6245610;28;20029;-70
2021/08/23 08:29:18;;;;;;;1.38;0.77;;;25.10;51.20;;;;;;6246522;28;20029;-69
2021/08/23 08:32:20;;;;;;;1.10;0.68;;;25.10;51.10;;;;;;6245618;28;20056;-69
2021/08/23 08:35:22;;;;;;;0.75;0.60;;;25.10;51.10;;;;;;6244687;28;20026;-70
2021/08/23 08:38:22;;;;;;;0.60;0.60;;;25.10;51.00;;;;;;6245052;28;20542;-70
2021/08/23 08:41:23;;;;;;;1.15;0.70;;;25.10;51.00;;;;;;6244572;28;20033;-70
2021/08/23 08:44:28;;;;;;;0.80;0.65;;;25.10;51.00;;;;;;6245659;28;20021;-70
2021/08/23 08:47:29;;;;;;;1.15;0.75;;;25.10;50.90;;;;;;6243307;28;20033;-70
2021/08/23 08:50:30;;;;;;;1.15;0.60;;;25.10;50.90;;;;;;6244849;28;20481;-69
2021/08/23 08:53:31;;;;;;;0.70;0.52;;;25.10;50.80;;;;;;6244771;28;20032;-69
2021/08/23 08:56:33;;;;;;;0.65;0.60;;;25.10;50.80;;;;;;6243123;28;20102;-70
2021/08/23 08:59:34;;;;;;;1.00;0.70;;;25.10;50.80;;;;;;6244867;28;20025;-69
2021/08/23 09:02:36;;;;;;;0.73;0.57;;;25.10;50.70;;;;;;6235774;28;20026;-70
2021/08/23 09:05:42;;;;;;;0.82;0.65;;;25.10;50.70;;;;;;6237632;28;20471;-71
2021/08/23 09:08:45;;;;;;;0.60;0.60;;;25.20;50.70;;;;;;6244241;28;20031;-68
2021/08/23 09:12:03;;;;;;;0.85;0.63;;;25.20;50.70;;;;;;6244285;28;20021;-68
2021/08/23 09:15:05;;;;;;;0.77;0.70;;;25.20;50.70;;;;;;6231880;28;20029;-72
2021/08/23 09:18:08;;;;;;;0.70;0.65;;;25.20;50.70;;;;;;6244898;28;20025;-72
2021/08/23 09:21:10;;;;;;;0.90;0.65;;;25.20;50.60;;;;;;6241915;28;20068;-71
2021/08/23 09:24:20;;;;;;;0.73;0.65;;;25.20;50.60;;;;;;6245983;28;20021;-72
2021/08/23 09:27:21;;;;;;;0.82;0.65;;;25.20;51.20;;;;;;6245091;28;20025;-64
2021/08/23 09:30:22;;;;;;;0.80;0.60;;;25.20;50.50;;;;;;6244613;28;20030;-67
2021/08/23 09:33:23;;;;;;;0.60;0.60;;;25.20;50.50;;;;;;6247612;28;20017;-69
2021/08/23 09:36:24;;;;;;;0.60;0.50;;;25.20;50.40;;;;;;6245317;28;20509;-68
2021/08/23 09:39:28;;;;;;;0.70;0.68;;;25.20;50.40;;;;;;6243908;28;20482;-68
2021/08/23 09:42:30;;;;;;;1.75;0.90;;;25.20;50.70;;;;;;6244623;28;20032;-69
2021/08/23 09:45:30;;;;;;;0.80;0.60;;;25.20;50.30;;;;;;6242897;28;20509;-72
2021/08/23 09:48:31;;;;;;;0.50;0.40;;;25.20;50.30;;;;;;6242202;28;20029;-70
2021/08/23 09:51:44;;;;;;;0.60;0.55;;;25.20;50.20;;;;;;6234719;28;20026;-72
2021/08/23 09:54:58;;;;;;;0.50;0.50;;;25.20;50.20;;;;;;6234365;28;20034;-72
2021/08/23 09:57:59;;;;;;;0.43;0.40;;;25.20;50.20;;;;;;6255604;28;20499;-71
2021/08/23 10:01:01;;;;;;;0.35;0.35;;;25.20;50.10;;;;;;6242110;28;20033;-72
2021/08/23 10:04:04;;;;;;;0.60;0.55;;;25.20;50.10;;;;;;6243327;28;20108;-72
2021/08/23 10:07:10;;;;;;;0.95;0.50;;;25.20;50.10;;;;;;6242442;28;20557;-72
2021/08/23 10:10:13;;;;;;;0.98;0.73;;;25.20;50.10;;;;;;6242035;28;20029;-71
2021/08/23 10:13:14;;;;;;;0.50;0.40;;;25.20;50.10;;;;;;6234180;28;20129;-70
2021/08/23 10:16:15;;;;;;;0.32;0.32;;;25.20;50.00;;;;;;6218707;28;20063;-72
2021/08/23 10:19:18;;;;;;;0.45;0.45;;;25.20;49.90;;;;;;6245019;28;20038;-72
2021/08/23 10:22:19;;;;;;;0.40;0.40;;;25.20;50.00;;;;;;6261960;28;20394;-72
2021/08/23 10:25:21;;;;;;;0.38;0.38;;;25.20;50.00;;;;;;6247479;28;20029;-72
2021/08/23 10:28:34;;;;;;;0.50;0.50;;;25.30;49.90;;;;;;6247416;28;20117;-71
2021/08/23 10:31:40;;;;;;;0.80;0.55;;;25.20;49.80;;;;;;6247087;28;20095;-72
2021/08/23 10:34:43;;;;;;;0.63;0.50;;;25.20;49.80;;;;;;6248566;28;20025;-72
2021/08/23 10:37:44;;;;;;;0.55;0.50;;;25.20;49.80;;;;;;6247158;28;20036;-71
2021/08/23 10:40:45;;;;;;;0.55;0.50;;;25.30;49.80;;;;;;6247653;28;20502;-72
2021/08/23 10:43:50;;;;;;;0.60;0.50;;;25.30;49.80;;;;;;6245994;28;20037;-72
2021/08/23 10:46:51;;;;;;;0.50;0.45;;;25.30;49.70;;;;;;6246185;28;20415;-72
2021/08/23 10:49:51;;;;;;;1.65;0.60;;;25.30;49.70;;;;;;6247287;28;20359;-72
2021/08/23 10:52:55;;;;;;;0.40;0.40;;;25.30;49.70;;;;;;6245835;28;20029;-70
2021/08/23 10:55:56;;;;;;;0.45;0.40;;;25.30;49.70;;;;;;6246989;28;20038;-70
2021/08/23 10:58:56;;;;;;;0.40;0.40;;;25.30;49.60;;;;;;6247478;28;20070;-73
2021/08/23 11:01:58;;;;;;;0.70;0.50;;;25.30;49.60;;;;;;6245282;28;20032;-72
2021/08/23 11:05:10;;;;;;;1.67;0.70;;;25.30;49.60;;;;;;6245879;28;20072;-71
2021/08/23 11:08:18;;;;;;;0.75;0.45;;;25.30;49.60;;;;;;6246650;28;20048;-71
2021/08/23 11:11:18;;;;;;;0.75;0.57;;;25.30;49.50;;;;;;6246745;28;20025;-72
2021/08/23 11:14:20;;;;;;;0.90;0.57;;;25.30;49.50;;;;;;6237347;28;20510;-72
2021/08/23 11:17:32;;;;;;;0.57;0.50;;;25.30;49.50;;;;;;6223107;28;20053;-72
2021/08/23 11:20:35;;;;;;;0.80;0.60;;;25.30;49.50;;;;;;6221122;28;20057;-71
2021/08/23 11:23:36;;;;;;;1.02;0.50;;;25.30;49.50;;;;;;6221774;28;20086;-69
2021/08/23 11:26:37;;;;;;;0.50;0.40;;;25.30;49.50;;;;;;6222662;28;20079;-72
2021/08/23 11:29:51;;;;;;;0.85;0.68;;;25.30;49.40;;;;;;6237717;28;20531;-72
2021/08/23 11:32:52;;;;;;;0.80;0.50;;;25.30;49.40;;;;;;6244893;28;20039;-72
2021/08/23 11:35:52;;;;;;;0.70;0.50;;;25.30;49.40;;;;;;6246495;28;20041;-71
2021/08/23 11:38:53;;;;;;;0.40;0.40;;;25.30;49.30;;;;;;6246151;28;20029;-72
2021/08/23 11:42:02;;;;;;;0.50;0.40;;;25.30;49.30;;;;;;6246264;28;20029;-72
2021/08/23 11:45:03;;;;;;;0.60;0.38;;;25.30;49.30;;;;;;6245541;28;20025;-71
2021/08/23 11:48:04;;;;;;;0.70;0.50;;;25.30;49.20;;;;;;6245734;28;20025;-71
2021/08/23 11:51:05;;;;;;;0.40;0.40;;;25.30;49.90;;;;;;6246287;28;20032;-74
2021/08/23 11:54:06;;;;;;;6.38;0.50;;;25.30;49.10;;;;;;6246107;28;20025;-73
2021/08/23 11:57:07;;;;;;;1.15;0.50;;;25.30;49.20;;;;;;6245344;28;20088;-72
2021/08/23 12:00:08;;;;;;;2.40;0.40;;;25.30;49.20;;;;;;6246056;28;20056;-72
2021/08/23 12:03:16;;;;;;;0.88;0.57;;;25.30;49.20;;;;;;6247048;28;20495;-70
2021/08/23 12:06:16;;;;;;;0.40;0.40;;;25.30;49.10;;;;;;6221888;28;20105;-72
2021/08/23 12:09:18;;;;;;;0.40;0.40;;;25.30;49.20;;;;;;6227039;28;20083;-72
2021/08/23 12:12:23;;;;;;;0.52;0.50;;;25.30;49.10;;;;;;6245767;28;20052;-72
2021/08/23 12:15:25;;;;;;;0.75;0.52;;;25.30;49.10;;;;;;6241446;28;20099;-72
2021/08/23 12:18:47;;;;;;;0.63;0.63;;;25.30;49.10;;;;;;6244315;28;20068;-72
2021/08/23 12:22:04;;;;;;;0.80;0.50;;;25.30;49.10;;;;;;6244337;28;20060;-69
2021/08/23 12:25:05;;;;;;;0.73;0.40;;;25.30;49.00;;;;;;6244068;28;20071;-73
2021/08/23 12:28:15;;;;;;;0.98;0.60;;;25.30;49.10;;;;;;6245911;28;20029;-72
2021/08/23 12:31:17;;;;;;;0.57;0.57;;;25.30;49.00;;;;;;6245577;28;20124;-72
2021/08/23 12:34:22;;;;;;;1.05;0.60;;;25.30;49.00;;;;;;6243305;28;20108;-68
2021/08/23 12:37:23;;;;;;;0.38;0.30;;;25.30;49.00;;;;;;6194443;28;20049;-68
2021/08/23 12:40:25;;;;;;;0.82;0.52;;;25.30;49.00;;;;;;6177307;28;20137;-68
2021/08/23 12:43:26;;;;;;;0.50;0.40;;;25.30;49.00;;;;;;6176792;28;20236;-68
2021/08/23 12:46:27;;;;;;;0.57;0.50;;;25.30;48.90;;;;;;6176493;28;20174;-68
2021/08/23 12:49:27;;;;;;;0.40;0.40;;;25.30;48.90;;;;;;6192358;28;20046;-68
2021/08/23 12:52:28;;;;;;;0.50;0.50;;;25.30;48.90;;;;;;6175594;28;20198;-68
2021/08/23 12:55:28;;;;;;;0.82;0.73;;;25.30;48.80;;;;;;6192644;28;20035;-68
2021/08/23 12:58:31;;;;;;;1.00;0.52;;;25.30;48.80;;;;;;6192920;28;20515;-68
2021/08/23 13:01:34;;;;;;;0.68;0.50;;;25.30;48.80;;;;;;6193555;28;20071;-66
2021/08/23 13:04:34;;;;;;;0.90;0.38;;;25.30;48.70;;;;;;6201829;28;20030;-66
2021/08/23 13:07:35;;;;;;;0.50;0.50;;;25.30;48.70;;;;;;6185326;28;20034;-67
2021/08/23 13:10:42;;;;;;;0.30;0.30;;;25.30;48.70;;;;;;6226808;28;20486;-66
2021/08/23 13:13:43;;;;;;;0.40;0.40;;;25.30;48.70;;;;;;6239121;28;20017;-66
2021/08/23 13:16:43;;;;;;;0.40;0.40;;;25.30;48.70;;;;;;6235222;28;20474;-66
2021/08/23 13:19:44;;;;;;;1.60;0.38;;;25.30;48.70;;;;;;6244058;28;20029;-68
2021/08/23 13:22:44;;;;;;;0.50;0.50;;;25.40;48.70;;;;;;6244084;28;20029;-68
2021/08/23 13:25:45;;;;;;;1.20;0.52;;;25.30;48.70;;;;;;6243989;28;20028;-68
2021/08/23 13:28:45;;;;;;;0.40;0.40;;;25.30;48.60;;;;;;6243985;28;20213;-66
2021/08/23 13:31:46;;;;;;;0.90;0.50;;;25.30;48.60;;;;;;6243540;28;20104;-66
2021/08/23 13:34:46;;;;;;;0.50;0.45;;;25.40;48.60;;;;;;6242853;28;20283;-68
2021/08/23 13:37:47;;;;;;;0.75;0.50;;;25.40;48.60;;;;;;6242141;28;20198;-68
2021/08/23 13:40:49;;;;;;;0.50;0.50;;;25.40;48.70;;;;;;6243230;28;20030;-68
2021/08/23 13:43:51;;;;;;;0.45;0.43;;;25.30;48.50;;;;;;6243714;28;20530;-68
2021/08/23 13:46:53;;;;;;;0.40;0.40;;;25.40;48.60;;;;;;6243797;28;20024;-68
2021/08/23 13:49:54;;;;;;;0.98;0.50;;;25.40;48.50;;;;;;6243349;28;20478;-68
2021/08/23 13:52:55;;;;;;;0.40;0.40;;;25.40;48.50;;;;;;6243267;28;20028;-68
2021/08/23 13:55:55;;;;;;;0.60;0.40;;;25.30;48.40;;;;;;6245477;28;20030;-68
2021/08/23 13:58:59;;;;;;;0.70;0.50;;;25.40;48.50;;;;;;6249124;28;20037;-68
2021/08/23 14:01:59;;;;;;;0.82;0.60;;;25.40;48.50;;;;;;6248283;28;20017;-68
2021/08/23 14:05:00;;;;;;;0.47;0.47;;;25.30;48.50;;;;;;6248546;28;20021;-68
2021/08/23 14:08:01;;;;;;;0.40;0.40;;;25.40;48.40;;;;;;6248246;28;20411;-66
2021/08/23 14:11:02;;;;;;;0.45;0.40;;;25.40;48.40;;;;;;6248284;28;20033;-68
2021/08/23 14:14:03;;;;;;;0.40;0.35;;;25.40;48.40;;;;;;6240257;28;20026;-66
2021/08/23 14:17:04;;;;;;;0.50;0.38;;;25.40;48.40;;;;;;6228831;28;20087;-66
2021/08/23 14:20:10;;;;;;;0.85;0.50;;;25.40;48.30;;;;;;6246108;28;20037;-66
2021/08/23 14:23:11;;;;;;;0.52;0.45;;;25.40;48.30;;;;;;6248178;28;20475;-68
2021/08/23 14:26:11;;;;;;;1.02;0.50;;;25.40;48.30;;;;;;6248103;28;20036;-68
2021/08/23 14:29:12;;;;;;;0.90;0.50;;;25.40;48.30;;;;;;6248212;28;20033;-68
2021/08/23 14:32:12;;;;;;;0.98;0.60;;;25.40;48.30;;;;;;6248005;28;20017;-68
2021/08/23 14:35:13;;;;;;;0.80;0.50;;;25.40;48.30;;;;;;6247596;28;20492;-68
2021/08/23 14:38:14;;;;;;;0.65;0.40;;;25.40;48.30;;;;;;6248235;28;20413;-68
2021/08/23 14:41:17;;;;;;;0.47;0.30;;;25.40;48.30;;;;;;6247211;28;20029;-68
2021/08/23 14:44:18;;;;;;;0.50;0.45;;;25.40;48.20;;;;;;6247535;28;20045;-68
2021/08/23 14:47:19;;;;;;;0.75;0.50;;;25.40;48.30;;;;;;6247690;28;20021;-68
2021/08/23 14:50:20;;;;;;;0.47;0.40;;;25.40;48.20;;;;;;6247420;28;20021;-68
2021/08/23 14:53:21;;;;;;;0.68;0.50;;;25.40;48.20;;;;;;6247048;28;20495;-68
2021/08/23 14:56:21;;;;;;;0.40;0.40;;;25.40;48.20;;;;;;6247075;28;20053;-68
2021/08/23 14:59:22;;;;;;;0.88;0.50;;;25.40;48.20;;;;;;6247034;28;20041;-68
2021/08/23 15:02:26;;;;;;;0.43;0.40;;;25.40;48.20;;;;;;6246689;28;20442;-66
2021/08/23 15:05:27;;;;;;;0.60;0.40;;;25.40;48.20;;;;;;6246745;28;20538;-66
2021/08/23 15:08:27;;;;;;;0.70;0.52;;;25.40;48.10;;;;;;6246671;28;20104;-68
2021/08/23 15:11:28;;;;;;;0.50;0.47;;;25.40;48.10;;;;;;6246694;28;20040;-66
2021/08/23 15:14:31;;;;;;;0.47;0.43;;;25.40;48.10;;;;;;6236958;28;20030;-68
2021/08/23 15:17:31;;;;;;;1.10;0.57;;;25.40;48.10;;;;;;6223390;28;20078;-68
2021/08/23 15:20:32;;;;;;;0.65;0.60;;;25.40;48.10;;;;;;6246236;28;20033;-68
2021/08/23 15:23:33;;;;;;;0.50;0.50;;;25.40;48.10;;;;;;6247278;28;20433;-68
2021/08/23 15:26:33;;;;;;;0.55;0.55;;;25.40;48.10;;;;;;6246535;28;20025;-68
2021/08/23 15:29:34;;;;;;;0.85;0.40;;;25.40;48.00;;;;;;6245531;28;20037;-68
2021/08/23 15:32:35;;;;;;;0.50;0.50;;;25.40;48.00;;;;;;6246125;28;20486;-68
2021/08/23 15:35:38;;;;;;;0.90;0.60;;;25.40;48.20;;;;;;6246101;28;20033;-66
2021/08/23 15:38:38;;;;;;;0.60;0.60;;;25.40;48.00;;;;;;6246296;28;20030;-66
2021/08/23 15:41:41;;;;;;;0.68;0.60;;;25.40;48.00;;;;;;6245728;28;20457;-66
2021/08/23 15:44:42;;;;;;;0.65;0.57;;;25.40;47.90;;;;;;6246507;28;20029;-66
2021/08/23 15:47:43;;;;;;;0.60;0.52;;;25.40;47.90;;;;;;6246202;28;20450;-68